sensor_id;sensor_type;location;lat;lon;timestamp;temperature;humidity
76759;DHT22;65701;45.588;5.186;2023-01-16T18:14:12;7.10;69.01
76759;DHT22;65701;45.588;5.186;2023-01-16T18:16:56;7.05;68.96
76759;DHT22;65701;45.588;5.186;2023-01-16T18:19:40;7.00;69.02
76759;DHT22;65701;45.588;5.186;2023-01-16T18:22:06;6.91;69.02
76759;DHT22;65701;45.588;5.186;2023-01-16T18:24:39;6.86;69.06
76759;DHT22;65701;45.588;5.186;2023-01-16T18:27:07;6.83;69.09
76759;DHT22;65701;45.588;5.186;2023-01-16T18:29:33;6.76;69.16
76759;DHT22;65701;45.588;5.186;2023-01-16T18:31:59;6.75;69.27
76759;DHT22;65701;45.588;5.186;2023-01-16T18:34:43;6.73;69.38
76759;DHT22;65701;45.588;5.186;2023-01-16T18:37:11;6.76;69.47
76759;DHT22;65701;45.588;5.186;2023-01-16T18:39:36;6.69;69.42
76759;DHT22;65701;45.588;5.186;2023-01-16T18:42:20;6.65;69.43
76759;DHT22;65701;45.588;5.186;2023-01-16T18:45:05;6.62;69.49
76759;DHT22;65701;45.588;5.186;2023-01-16T18:47:48;6.56;69.54
76759;DHT22;65701;45.588;5.186;2023-01-16T18:50:32;6.52;69.53
76759;DHT22;65701;45.588;5.186;2023-01-16T18:53:23;6.46;69.61
76759;DHT22;65701;45.588;5.186;2023-01-16T18:56:12;6.45;69.57
76759;DHT22;65701;45.588;5.186;2023-01-16T18:58:57;6.42;69.63
76759;DHT22;65701;45.588;5.186;2023-01-16T19:01:41;6.42;69.70
76759;DHT22;65701;45.588;5.186;2023-01-16T19:04:26;6.44;69.76
76759;DHT22;65701;45.588;5.186;2023-01-16T19:07:00;6.46;69.69
76759;DHT22;65701;45.588;5.186;2023-01-16T19:09:28;6.46;69.67
76759;DHT22;65701;45.588;5.186;2023-01-16T19:11:54;6.48;69.57
76759;DHT22;65701;45.588;5.186;2023-01-16T19:14:23;6.53;69.61
76759;DHT22;65701;45.588;5.186;2023-01-16T19:16:51;6.59;69.57
76759;DHT22;65701;45.588;5.186;2023-01-16T19:19:22;6.57;69.54
76759;DHT22;65701;45.588;5.186;2023-01-16T19:21:48;6.57;69.53
76759;DHT22;65701;45.588;5.186;2023-01-16T19:24:14;6.59;69.37
76759;DHT22;65701;45.588;5.186;2023-01-16T19:26:41;6.61;69.33
76759;DHT22;65701;45.588;5.186;2023-01-16T19:29:10;6.57;69.20
76759;DHT22;65701;45.588;5.186;2023-01-16T19:31:37;6.59;69.02
76759;DHT22;65701;45.588;5.186;2023-01-16T19:34:03;6.56;68.97
76759;DHT22;65701;45.588;5.186;2023-01-16T19:36:29;6.59;68.92
76759;DHT22;65701;45.588;5.186;2023-01-16T19:38:54;6.59;68.90
76759;DHT22;65701;45.588;5.186;2023-01-16T19:41:22;6.59;68.81
76759;DHT22;65701;45.588;5.186;2023-01-16T19:44:06;6.61;68.75
76759;DHT22;65701;45.588;5.186;2023-01-16T19:46:50;6.61;68.68
76759;DHT22;65701;45.588;5.186;2023-01-16T19:49:15;6.63;68.76
76759;DHT22;65701;45.588;5.186;2023-01-16T19:51:41;6.62;68.76
76759;DHT22;65701;45.588;5.186;2023-01-16T19:54:07;6.63;68.63
76759;DHT22;65701;45.588;5.186;2023-01-16T19:56:33;6.68;68.62
76759;DHT22;65701;45.588;5.186;2023-01-16T19:59:01;6.68;68.63
76759;DHT22;65701;45.588;5.186;2023-01-16T20:01:26;6.72;68.63
76759;DHT22;65701;45.588;5.186;2023-01-16T20:03:52;6.73;68.65
76759;DHT22;65701;45.588;5.186;2023-01-16T20:06:18;6.75;68.62
76759;DHT22;65701;45.588;5.186;2023-01-16T20:08:44;6.80;68.67
76759;DHT22;65701;45.588;5.186;2023-01-16T20:11:10;6.77;68.66
76759;DHT22;65701;45.588;5.186;2023-01-16T20:13:37;6.77;68.51
76759;DHT22;65701;45.588;5.186;2023-01-16T20:16:04;6.76;68.42
76759;DHT22;65701;45.588;5.186;2023-01-16T20:18:31;6.76;68.35
76759;DHT22;65701;45.588;5.186;2023-01-16T20:20:56;6.80;68.42
76759;DHT22;65701;45.588;5.186;2023-01-16T20:23:22;6.77;68.41
76759;DHT22;65701;45.588;5.186;2023-01-16T20:25:47;6.73;68.38
76759;DHT22;65701;45.588;5.186;2023-01-16T20:28:13;6.69;68.29
76759;DHT22;65701;45.588;5.186;2023-01-16T20:30:38;6.68;68.16
76759;DHT22;65701;45.588;5.186;2023-01-16T20:33:10;6.68;68.09
76759;DHT22;65701;45.588;5.186;2023-01-16T20:35:36;6.65;68.16
76759;DHT22;65701;45.588;5.186;2023-01-16T20:38:03;6.66;68.26
76759;DHT22;65701;45.588;5.186;2023-01-16T20:40:29;6.65;68.35
76759;DHT22;65701;45.588;5.186;2023-01-16T20:42:55;6.63;68.40
76759;DHT22;65701;45.588;5.186;2023-01-16T20:45:40;6.61;68.52
76759;DHT22;65701;45.588;5.186;2023-01-16T20:48:21;6.57;68.61
76759;DHT22;65701;45.588;5.186;2023-01-16T20:50:49;6.59;68.70
76759;DHT22;65701;45.588;5.186;2023-01-16T20:53:15;6.61;68.75
76759;DHT22;65701;45.588;5.186;2023-01-16T20:55:44;6.57;68.81
76759;DHT22;65701;45.588;5.186;2023-01-16T20:58:13;6.53;68.89
76759;DHT22;65701;45.588;5.186;2023-01-16T21:00:39;6.55;68.96
76759;DHT22;65701;45.588;5.186;2023-01-16T21:03:05;6.56;69.03
76759;DHT22;65701;45.588;5.186;2023-01-16T21:05:32;6.56;69.11
76759;DHT22;65701;45.588;5.186;2023-01-16T21:07:59;6.52;69.20
76759;DHT22;65701;45.588;5.186;2023-01-16T21:10:25;6.52;69.21
76759;DHT22;65701;45.588;5.186;2023-01-16T21:12:53;6.53;69.26
76759;DHT22;65701;45.588;5.186;2023-01-16T21:15:37;6.46;69.33
76759;DHT22;65701;45.588;5.186;2023-01-16T21:18:04;6.50;69.34
76759;DHT22;65701;45.588;5.186;2023-01-16T21:20:48;6.49;69.45
76759;DHT22;65701;45.588;5.186;2023-01-16T21:23:35;6.49;69.46
76759;DHT22;65701;45.588;5.186;2023-01-16T21:26:01;6.49;69.53
76759;DHT22;65701;45.588;5.186;2023-01-16T21:28:27;6.46;69.62
76759;DHT22;65701;45.588;5.186;2023-01-16T21:30:53;6.48;69.64
76759;DHT22;65701;45.588;5.186;2023-01-16T21:33:18;6.46;69.71
76759;DHT22;65701;45.588;5.186;2023-01-16T21:35:44;6.45;69.71
76759;DHT22;65701;45.588;5.186;2023-01-16T21:38:09;6.46;69.79
76759;DHT22;65701;45.588;5.186;2023-01-16T21:40:35;6.45;69.84
76759;DHT22;65701;45.588;5.186;2023-01-16T21:43:01;6.45;69.87
76759;DHT22;65701;45.588;5.186;2023-01-16T21:45:45;6.45;69.91
76759;DHT22;65701;45.588;5.186;2023-01-16T21:48:29;6.44;69.91
76759;DHT22;65701;45.588;5.186;2023-01-16T21:50:54;6.42;69.86
